createdAt,value
2022-09-09T03:22:32.271Z,18.10
2022-09-09T03:26:39.104Z,18.10
2022-09-09T03:30:46.558Z,18.10
2022-09-09T03:34:51.217Z,18.00
2022-09-09T03:38:56.744Z,18.00
2022-09-09T03:43:03.455Z,18.00
2022-09-09T03:47:08.396Z,18.00
2022-09-09T03:51:13.137Z,18.00
2022-09-09T03:55:18.977Z,18.20
2022-09-09T03:59:24.507Z,18.30
2022-09-09T04:03:29.860Z,18.40
2022-09-09T04:07:34.416Z,18.40
2022-09-09T04:11:38.909Z,18.40
2022-09-09T04:15:43.859Z,18.50
2022-09-09T04:19:49.319Z,18.50
2022-09-09T04:23:54.106Z,18.70
2022-09-09T04:28:00.418Z,18.70
2022-09-09T04:32:06.533Z,18.70
2022-09-09T04:36:12.177Z,18.80
2022-09-09T04:40:16.866Z,18.70
2022-09-09T04:44:21.823Z,18.70
2022-09-09T04:48:26.900Z,18.50
2022-09-09T04:52:31.664Z,18.40
2022-09-09T04:56:35.912Z,18.40
2022-09-09T05:00:40.165Z,18.40
2022-09-09T05:04:45.744Z,18.30
2022-09-09T05:08:54.485Z,18.30
2022-09-09T05:13:03.424Z,18.30
2022-09-09T05:17:08.233Z,18.30
2022-09-09T05:21:17.744Z,18.40
2022-09-09T05:25:23.852Z,18.50
2022-09-09T05:29:29.025Z,18.90
2022-09-09T05:33:34.746Z,19.70
2022-09-09T05:37:39.354Z,20.50
2022-09-09T05:41:43.688Z,20.60
2022-09-09T05:45:49.768Z,20.50
2022-09-09T05:49:54.096Z,20.20
2022-09-09T05:54:00.614Z,20.40
2022-09-09T05:58:09.121Z,21.10
2022-09-09T06:02:14.863Z,21.50
2022-09-09T06:06:25.600Z,22.10
2022-09-09T06:10:31.903Z,22.60
2022-09-09T06:14:36.470Z,23.20
2022-09-09T06:18:42.159Z,23.60
2022-09-09T06:22:47.994Z,23.90
2022-09-09T06:26:53.274Z,24.30
2022-09-09T06:31:02.898Z,24.80
2022-09-09T06:35:09.287Z,25.30
2022-09-09T06:39:15.209Z,24.60
2022-09-09T06:43:21.338Z,23.90
2022-09-09T06:47:30.281Z,23.40
2022-09-09T06:51:38.953Z,23.20
2022-09-09T06:55:45.918Z,23.20
2022-09-09T06:59:50.794Z,23.00
2022-09-09T07:04:00.233Z,22.90
2022-09-09T07:08:05.515Z,22.80
2022-09-09T07:12:10.310Z,22.90
2022-09-09T07:16:32.669Z,22.90
2022-09-09T07:20:37.912Z,22.90
2022-09-09T07:24:42.685Z,23.00
2022-09-09T07:28:47.671Z,23.10
2022-09-09T07:32:54.303Z,23.10
2022-09-09T07:37:01.928Z,23.30
2022-09-09T07:41:15.672Z,23.50
2022-09-09T07:45:19.923Z,23.50
2022-09-09T07:49:29.657Z,23.50
2022-09-09T07:53:39.195Z,23.50
2022-09-09T07:57:43.755Z,23.60
2022-09-09T08:01:56.127Z,23.60
2022-09-09T08:06:09.645Z,23.50
2022-09-09T08:10:16.145Z,23.50
2022-09-09T08:14:23.754Z,23.50
2022-09-09T08:18:29.511Z,23.50
2022-09-09T08:22:33.660Z,23.40
2022-09-09T08:26:45.657Z,23.40
2022-09-09T08:30:50.501Z,23.30
2022-09-09T08:34:54.995Z,23.40
2022-09-09T08:39:08.714Z,23.30
2022-09-09T08:43:14.775Z,23.30
2022-09-09T08:47:45.336Z,23.50
2022-09-09T08:51:52.301Z,23.50
2022-09-09T08:56:23.969Z,23.70
2022-09-09T09:01:03.246Z,24.00
2022-09-09T09:05:31.635Z,24.40
2022-09-09T09:09:54.605Z,24.50
2022-09-09T09:14:05.956Z,24.90
2022-09-09T09:18:14.234Z,25.10
2022-09-09T09:22:44.044Z,25.20
2022-09-09T09:26:50.540Z,25.40
2022-09-09T09:31:15.221Z,25.80
2022-09-09T09:35:24.196Z,26.10
2022-09-09T09:44:21.885Z,26.10
2022-09-09T09:48:29.325Z,25.60
2022-09-09T09:52:38.274Z,25.30
2022-09-09T09:56:47.396Z,25.10
2022-09-09T10:00:54.774Z,25.20
2022-09-09T10:05:10.834Z,25.70
2022-09-09T10:09:35.315Z,26.20
2022-09-09T10:13:49.242Z,26.60
2022-09-09T10:17:53.563Z,27.10
2022-09-09T10:22:18.603Z,27.50
2022-09-09T10:26:50.864Z,27.60
2022-09-09T10:31:18.760Z,27.60
2022-09-09T10:35:55.403Z,27.50
2022-09-09T10:40:28.655Z,27.20
2022-09-09T10:45:00.841Z,27.10
2022-09-09T10:49:24.982Z,27.10
2022-09-09T10:53:39.189Z,26.90
2022-09-09T10:57:50.594Z,26.60
2022-09-09T11:02:16.752Z,26.50
2022-09-09T11:06:27.431Z,26.50
2022-09-09T11:10:42.016Z,26.50
2022-09-09T11:15:12.613Z,26.50
2022-09-09T11:19:38.514Z,26.50
2022-09-09T11:24:02.870Z,26.60
2022-09-09T11:28:21.333Z,26.70
2022-09-09T11:33:04.232Z,26.90
2022-09-09T11:37:45.851Z,27.00
2022-09-09T11:41:51.962Z,27.10
2022-09-09T11:46:01.468Z,27.10
2022-09-09T11:50:41.794Z,27.10
2022-09-09T11:54:52.671Z,27.10
2022-09-09T11:59:30.602Z,27.00
2022-09-09T12:03:52.466Z,27.00
2022-09-09T12:08:03.163Z,27.20
2022-09-09T12:12:15.442Z,27.20
2022-09-09T12:16:49.116Z,27.30
2022-09-09T12:21:09.235Z,27.60
2022-09-09T12:25:19.146Z,27.90
2022-09-09T12:29:55.868Z,28.00
2022-09-09T12:34:15.495Z,28.00
2022-09-09T12:38:41.701Z,28.00
2022-09-09T12:42:46.525Z,28.20
2022-09-09T12:46:51.553Z,28.10
2022-09-09T12:50:57.644Z,28.10
2022-09-09T12:55:10.024Z,28.20
2022-09-09T12:59:27.003Z,28.30
2022-09-09T13:03:47.237Z,28.30
2022-09-09T13:07:54.204Z,28.30
2022-09-09T13:12:02.688Z,28.20
2022-09-09T13:16:21.537Z,28.20
2022-09-09T13:20:27.634Z,28.20
2022-09-09T13:24:37.083Z,28.20
2022-09-09T13:28:41.563Z,28.10
2022-09-09T13:32:47.313Z,28.00
2022-09-09T13:36:57.974Z,27.70
2022-09-09T13:41:10.352Z,27.50
2022-09-09T13:45:24.014Z,27.40
2022-09-09T13:49:35.293Z,27.20
2022-09-09T13:53:41.564Z,27.00
2022-09-09T13:58:01.671Z,26.90
2022-09-09T14:02:07.108Z,26.80
2022-09-09T14:06:15.193Z,26.70
2022-09-09T14:10:19.645Z,26.70
2022-09-09T14:14:24.034Z,26.60
2022-09-09T14:18:28.202Z,26.50
2022-09-09T14:22:34.205Z,26.40
2022-09-09T14:26:39.610Z,26.40
2022-09-09T14:30:48.460Z,26.40
2022-09-09T14:34:57.881Z,26.30
2022-09-09T14:39:03.801Z,26.30
2022-09-09T14:43:13.233Z,26.30
2022-09-09T14:47:19.873Z,26.20
2022-09-09T14:51:26.553Z,26.10
2022-09-09T14:55:31.343Z,26.00
2022-09-09T14:59:36.358Z,26.00
2022-09-09T15:03:42.047Z,25.80
2022-09-09T15:07:46.845Z,25.80
2022-09-09T15:11:54.043Z,25.60
2022-09-09T15:16:05.155Z,25.60
2022-09-09T15:20:11.063Z,25.50
2022-09-09T15:24:15.235Z,25.50
2022-09-09T15:28:19.954Z,25.40
2022-09-09T15:32:24.274Z,25.30
2022-09-09T15:36:40.526Z,25.30
2022-09-09T15:40:46.529Z,25.20
2022-09-09T15:44:53.316Z,25.20
2022-09-09T15:49:04.602Z,25.10
2022-09-09T15:53:08.761Z,25.00
2022-09-09T15:57:16.594Z,25.00
2022-09-09T16:01:27.403Z,24.90
2022-09-09T16:05:31.885Z,24.80
2022-09-09T16:09:37.154Z,24.70
2022-09-09T16:13:41.726Z,24.60
2022-09-09T16:17:46.276Z,24.50
2022-09-09T16:21:52.836Z,24.50
2022-09-09T16:26:00.495Z,24.40
2022-09-09T16:30:09.465Z,24.20
2022-09-09T16:34:14.276Z,24.10
2022-09-09T16:38:18.774Z,24.00
2022-09-09T16:42:24.171Z,23.90
2022-09-09T16:46:31.390Z,23.90
2022-09-09T16:50:36.036Z,23.80
2022-09-09T16:54:40.396Z,23.60
2022-09-09T16:58:47.236Z,23.50
2022-09-09T17:02:51.763Z,23.50
2022-09-09T17:06:57.554Z,23.20
2022-09-09T17:11:02.074Z,23.00
2022-09-09T17:15:08.514Z,22.90
2022-09-09T17:19:15.533Z,22.70
2022-09-09T17:23:21.236Z,22.40
2022-09-09T17:27:25.650Z,22.20
2022-09-09T17:31:31.754Z,22.00
2022-09-09T17:35:36.165Z,21.90
2022-09-09T17:39:40.528Z,21.70
2022-09-09T17:43:48.597Z,21.60
2022-09-09T17:47:56.424Z,21.40
2022-09-09T17:52:01.483Z,21.30
2022-09-09T17:56:08.915Z,21.20
2022-09-09T18:00:13.874Z,21.00
2022-09-09T18:04:19.558Z,20.90
2022-09-09T18:08:23.799Z,20.80
2022-09-09T18:12:29.890Z,20.70
2022-09-09T18:16:37.028Z,20.60
2022-09-09T18:20:42.122Z,20.50
2022-09-09T18:24:48.782Z,20.50
2022-09-09T18:28:57.643Z,20.50
2022-09-09T18:33:02.772Z,20.40
2022-09-09T18:37:08.679Z,20.40
2022-09-09T18:41:18.371Z,20.40
2022-09-09T18:45:23.398Z,20.30
2022-09-09T18:49:28.118Z,20.40
2022-09-09T18:53:34.835Z,20.50
2022-09-09T18:57:39.324Z,20.50
2022-09-09T19:01:45.124Z,20.40
2022-09-09T19:05:49.502Z,20.30
2022-09-09T19:09:56.195Z,20.20
2022-09-09T19:14:04.359Z,20.10
2022-09-09T19:18:10.094Z,20.00
2022-09-09T19:22:16.628Z,20.00
2022-09-09T19:26:22.853Z,19.90
2022-09-09T19:30:29.325Z,19.80
2022-09-09T19:34:34.741Z,19.90
2022-09-09T19:38:39.795Z,19.90
2022-09-09T19:42:44.915Z,19.80
2022-09-09T19:46:49.136Z,19.80
2022-09-09T19:50:55.154Z,19.60
2022-09-09T19:55:02.263Z,19.50
2022-09-09T19:59:09.468Z,19.50
2022-09-09T20:03:19.741Z,19.40
2022-09-09T20:07:26.038Z,19.40
2022-09-09T20:11:33.716Z,19.40
2022-09-09T20:15:39.118Z,19.40
2022-09-09T20:19:43.875Z,19.30
2022-09-09T20:23:51.318Z,19.20
2022-09-09T20:27:55.701Z,19.10
2022-09-09T20:32:00.249Z,19.00
2022-09-09T20:36:21.322Z,19.00
2022-09-09T20:40:32.808Z,18.90
2022-09-09T20:44:38.431Z,18.80
2022-09-09T20:48:45.051Z,18.80
2022-09-09T20:52:53.061Z,18.70
2022-09-09T20:56:58.340Z,18.60
2022-09-09T21:01:08.034Z,18.40
2022-09-09T21:05:15.767Z,18.40
2022-09-09T21:09:25.356Z,18.30
2022-09-09T21:13:34.578Z,18.40
2022-09-09T21:17:41.777Z,18.30
2022-09-09T21:21:48.670Z,18.40
2022-09-09T21:25:54.357Z,18.40
2022-09-09T21:29:59.306Z,18.40
2022-09-09T21:34:03.547Z,18.50
2022-09-09T21:38:17.787Z,18.50
2022-09-09T21:42:22.585Z,18.40
2022-09-09T21:46:28.692Z,18.40
2022-09-09T21:50:37.626Z,18.40
2022-09-09T21:54:44.815Z,18.40
2022-09-09T21:58:59.139Z,18.40
2022-09-09T22:03:06.899Z,18.40
2022-09-09T22:07:11.620Z,18.40
2022-09-09T22:11:20.573Z,18.40
2022-09-09T22:15:25.679Z,18.40
2022-09-09T22:19:32.346Z,18.30
2022-09-09T22:23:37.512Z,18.20
2022-09-09T22:27:43.048Z,18.10
2022-09-09T22:31:47.937Z,18.00
2022-09-09T22:35:53.450Z,18.00
2022-09-09T22:39:58.032Z,17.80
2022-09-09T22:44:03.056Z,17.60
2022-09-09T22:48:07.288Z,17.50
2022-09-09T22:52:11.761Z,17.50
2022-09-09T22:56:18.803Z,17.40
2022-09-09T23:00:24.261Z,17.30
2022-09-09T23:04:29.119Z,17.30
2022-09-09T23:08:37.359Z,17.20
2022-09-09T23:12:42.720Z,17.20
2022-09-09T23:16:47.704Z,17.10
2022-09-09T23:21:01.138Z,17.00
2022-09-09T23:25:06.735Z,17.00
2022-09-09T23:29:15.535Z,16.90
